sensor_id;sensor_type;location;lat;lon;timestamp;P1;durP1;ratioP1;P2;durP2;ratioP2
2362;SDS011;64265;51.664;7.626;2023-07-09T00:02:10;6.30;;;5.70;;
2362;SDS011;64265;51.664;7.626;2023-07-09T00:04:39;8.57;;;7.30;;
2362;SDS011;64265;51.664;7.626;2023-07-09T00:07:08;8.47;;;6.43;;
2362;SDS011;64265;51.664;7.626;2023-07-09T00:09:42;7.63;;;6.27;;
2362;SDS011;64265;51.664;7.626;2023-07-09T00:12:10;9.30;;;6.67;;
2362;SDS011;64265;51.664;7.626;2023-07-09T00:14:40;7.13;;;6.33;;
2362;SDS011;64265;51.664;7.626;2023-07-09T00:17:08;8.33;;;6.63;;
2362;SDS011;64265;51.664;7.626;2023-07-09T00:19:38;7.23;;;6.00;;
2362;SDS011;64265;51.664;7.626;2023-07-09T00:22:08;6.87;;;6.20;;
2362;SDS011;64265;51.664;7.626;2023-07-09T00:24:41;7.37;;;6.70;;
2362;SDS011;64265;51.664;7.626;2023-07-09T00:27:09;7.13;;;6.50;;
2362;SDS011;64265;51.664;7.626;2023-07-09T00:29:36;7.90;;;7.10;;
2362;SDS011;64265;51.664;7.626;2023-07-09T00:32:03;6.70;;;6.00;;
2362;SDS011;64265;51.664;7.626;2023-07-09T00:34:31;7.20;;;6.50;;
2362;SDS011;64265;51.664;7.626;2023-07-09T00:36:59;7.00;;;6.37;;
2362;SDS011;64265;51.664;7.626;2023-07-09T00:39:26;7.90;;;7.10;;
2362;SDS011;64265;51.664;7.626;2023-07-09T00:41:53;6.47;;;5.60;;
2362;SDS011;64265;51.664;7.626;2023-07-09T00:44:22;7.67;;;5.97;;
2362;SDS011;64265;51.664;7.626;2023-07-09T00:49:52;6.10;;;5.50;;
2362;SDS011;64265;51.664;7.626;2023-07-09T00:52:31;8.33;;;7.53;;
2362;SDS011;64265;51.664;7.626;2023-07-09T00:55:02;6.50;;;5.50;;
2362;SDS011;64265;51.664;7.626;2023-07-09T00:57:31;6.17;;;5.57;;
2362;SDS011;64265;51.664;7.626;2023-07-09T01:00:00;6.43;;;5.83;;
2362;SDS011;64265;51.664;7.626;2023-07-09T01:02:33;5.83;;;5.33;;
2362;SDS011;64265;51.664;7.626;2023-07-09T01:04:59;7.33;;;6.50;;
2362;SDS011;64265;51.664;7.626;2023-07-09T01:07:29;7.40;;;6.70;;
2362;SDS011;64265;51.664;7.626;2023-07-09T01:09:56;6.60;;;6.00;;
2362;SDS011;64265;51.664;7.626;2023-07-09T01:12:23;7.00;;;5.93;;
2362;SDS011;64265;51.664;7.626;2023-07-09T01:14:52;7.47;;;6.77;;
2362;SDS011;64265;51.664;7.626;2023-07-09T01:17:23;6.87;;;6.27;;
2362;SDS011;64265;51.664;7.626;2023-07-09T01:19:53;6.83;;;6.07;;
2362;SDS011;64265;51.664;7.626;2023-07-09T01:22:22;6.30;;;5.80;;
2362;SDS011;64265;51.664;7.626;2023-07-09T01:24:52;5.77;;;5.23;;
2362;SDS011;64265;51.664;7.626;2023-07-09T01:27:26;6.07;;;5.53;;
2362;SDS011;64265;51.664;7.626;2023-07-09T01:29:55;7.40;;;6.70;;
2362;SDS011;64265;51.664;7.626;2023-07-09T01:32:24;6.57;;;5.90;;
2362;SDS011;64265;51.664;7.626;2023-07-09T01:34:52;6.20;;;5.60;;
2362;SDS011;64265;51.664;7.626;2023-07-09T01:37:23;6.30;;;5.70;;
2362;SDS011;64265;51.664;7.626;2023-07-09T01:39:52;5.33;;;4.83;;
2362;SDS011;64265;51.664;7.626;2023-07-09T01:42:20;6.70;;;5.87;;
2362;SDS011;64265;51.664;7.626;2023-07-09T01:44:48;6.40;;;5.80;;
2362;SDS011;64265;51.664;7.626;2023-07-09T01:47:16;7.60;;;6.83;;
2362;SDS011;64265;51.664;7.626;2023-07-09T01:49:43;7.07;;;6.07;;
2362;SDS011;64265;51.664;7.626;2023-07-09T01:52:11;6.60;;;5.90;;
2362;SDS011;64265;51.664;7.626;2023-07-09T01:54:42;7.47;;;6.60;;
2362;SDS011;64265;51.664;7.626;2023-07-09T01:57:15;6.67;;;5.97;;
2362;SDS011;64265;51.664;7.626;2023-07-09T01:59:44;6.90;;;6.20;;
2362;SDS011;64265;51.664;7.626;2023-07-09T02:02:11;6.27;;;5.67;;
2362;SDS011;64265;51.664;7.626;2023-07-09T02:04:44;6.90;;;6.30;;
2362;SDS011;64265;51.664;7.626;2023-07-09T02:07:15;6.17;;;5.57;;
2362;SDS011;64265;51.664;7.626;2023-07-09T02:09:43;6.57;;;5.97;;
2362;SDS011;64265;51.664;7.626;2023-07-09T02:12:10;6.73;;;6.03;;
2362;SDS011;64265;51.664;7.626;2023-07-09T02:14:38;5.53;;;5.03;;
2362;SDS011;64265;51.664;7.626;2023-07-09T02:17:06;6.20;;;5.67;;
2362;SDS011;64265;51.664;7.626;2023-07-09T02:19:34;6.37;;;5.87;;
2362;SDS011;64265;51.664;7.626;2023-07-09T02:22:01;6.40;;;5.80;;
2362;SDS011;64265;51.664;7.626;2023-07-09T02:24:27;6.13;;;5.60;;
2362;SDS011;64265;51.664;7.626;2023-07-09T02:26:56;6.10;;;5.47;;
2362;SDS011;64265;51.664;7.626;2023-07-09T02:29:24;8.80;;;5.77;;
2362;SDS011;64265;51.664;7.626;2023-07-09T02:31:52;7.70;;;6.50;;
2362;SDS011;64265;51.664;7.626;2023-07-09T02:34:21;6.20;;;5.70;;
2362;SDS011;64265;51.664;7.626;2023-07-09T02:36:50;6.63;;;6.03;;
2362;SDS011;64265;51.664;7.626;2023-07-09T02:39:17;6.13;;;5.53;;
2362;SDS011;64265;51.664;7.626;2023-07-09T02:41:45;5.50;;;5.00;;
2362;SDS011;64265;51.664;7.626;2023-07-09T02:44:13;6.53;;;5.73;;
2362;SDS011;64265;51.664;7.626;2023-07-09T02:46:40;6.80;;;6.20;;
2362;SDS011;64265;51.664;7.626;2023-07-09T02:49:07;7.10;;;5.90;;
2362;SDS011;64265;51.664;7.626;2023-07-09T02:51:36;6.03;;;5.50;;
2362;SDS011;64265;51.664;7.626;2023-07-09T02:54:03;6.60;;;6.00;;
2362;SDS011;64265;51.664;7.626;2023-07-09T02:56:30;6.73;;;5.67;;
2362;SDS011;64265;51.664;7.626;2023-07-09T02:58:57;6.27;;;5.73;;
2362;SDS011;64265;51.664;7.626;2023-07-09T03:01:25;7.03;;;6.33;;
2362;SDS011;64265;51.664;7.626;2023-07-09T03:03:52;6.23;;;5.43;;
2362;SDS011;64265;51.664;7.626;2023-07-09T03:06:19;6.23;;;5.50;;
2362;SDS011;64265;51.664;7.626;2023-07-09T03:08:46;5.97;;;5.43;;
2362;SDS011;64265;51.664;7.626;2023-07-09T03:11:14;6.17;;;5.57;;
2362;SDS011;64265;51.664;7.626;2023-07-09T03:13:42;6.73;;;6.03;;
2362;SDS011;64265;51.664;7.626;2023-07-09T03:16:09;6.43;;;5.80;;
2362;SDS011;64265;51.664;7.626;2023-07-09T03:18:38;5.53;;;5.03;;
2362;SDS011;64265;51.664;7.626;2023-07-09T03:21:05;6.43;;;5.83;;
2362;SDS011;64265;51.664;7.626;2023-07-09T03:23:31;6.33;;;5.60;;
2362;SDS011;64265;51.664;7.626;2023-07-09T03:25:58;5.97;;;5.40;;
2362;SDS011;64265;51.664;7.626;2023-07-09T03:28:25;6.27;;;5.67;;
2362;SDS011;64265;51.664;7.626;2023-07-09T03:30:53;8.17;;;6.03;;
2362;SDS011;64265;51.664;7.626;2023-07-09T03:33:21;6.00;;;5.50;;
2362;SDS011;64265;51.664;7.626;2023-07-09T03:35:49;5.97;;;5.40;;
2362;SDS011;64265;51.664;7.626;2023-07-09T03:38:16;6.57;;;5.60;;
2362;SDS011;64265;51.664;7.626;2023-07-09T03:40:43;6.70;;;6.10;;
2362;SDS011;64265;51.664;7.626;2023-07-09T03:43:10;6.73;;;5.80;;
2362;SDS011;64265;51.664;7.626;2023-07-09T03:45:37;6.03;;;5.43;;
2362;SDS011;64265;51.664;7.626;2023-07-09T03:48:04;6.00;;;5.43;;
2362;SDS011;64265;51.664;7.626;2023-07-09T03:50:32;5.00;;;4.50;;
2362;SDS011;64265;51.664;7.626;2023-07-09T03:53:00;7.10;;;6.03;;
2362;SDS011;64265;51.664;7.626;2023-07-09T03:55:26;5.03;;;4.53;;
2362;SDS011;64265;51.664;7.626;2023-07-09T03:57:53;6.70;;;6.00;;
2362;SDS011;64265;51.664;7.626;2023-07-09T04:00:20;5.80;;;5.20;;
2362;SDS011;64265;51.664;7.626;2023-07-09T04:02:47;6.70;;;6.10;;
2362;SDS011;64265;51.664;7.626;2023-07-09T04:05:14;6.00;;;5.30;;
2362;SDS011;64265;51.664;7.626;2023-07-09T04:07:41;6.47;;;5.80;;
2362;SDS011;64265;51.664;7.626;2023-07-09T04:10:09;6.50;;;5.90;;
2362;SDS011;64265;51.664;7.626;2023-07-09T04:12:36;7.67;;;6.10;;
2362;SDS011;64265;51.664;7.626;2023-07-09T04:15:03;6.10;;;5.53;;
2362;SDS011;64265;51.664;7.626;2023-07-09T04:17:31;6.33;;;5.80;;
2362;SDS011;64265;51.664;7.626;2023-07-09T04:19:58;5.70;;;5.20;;
2362;SDS011;64265;51.664;7.626;2023-07-09T04:22:24;7.10;;;6.47;;
2362;SDS011;64265;51.664;7.626;2023-07-09T04:24:51;7.03;;;6.37;;
2362;SDS011;64265;51.664;7.626;2023-07-09T04:27:19;6.47;;;5.87;;
2362;SDS011;64265;51.664;7.626;2023-07-09T04:29:46;5.93;;;5.33;;
2362;SDS011;64265;51.664;7.626;2023-07-09T04:32:14;5.63;;;5.13;;
2362;SDS011;64265;51.664;7.626;2023-07-09T04:34:41;5.70;;;5.10;;
2362;SDS011;64265;51.664;7.626;2023-07-09T04:37:09;8.23;;;6.20;;
2362;SDS011;64265;51.664;7.626;2023-07-09T04:39:37;6.60;;;6.00;;
2362;SDS011;64265;51.664;7.626;2023-07-09T04:42:04;6.93;;;6.23;;
2362;SDS011;64265;51.664;7.626;2023-07-09T04:44:34;6.77;;;6.13;;
2362;SDS011;64265;51.664;7.626;2023-07-09T04:47:00;7.10;;;6.40;;
2362;SDS011;64265;51.664;7.626;2023-07-09T04:49:27;6.00;;;5.40;;
2362;SDS011;64265;51.664;7.626;2023-07-09T04:51:54;6.40;;;5.73;;
2362;SDS011;64265;51.664;7.626;2023-07-09T04:54:23;6.17;;;5.60;;
2362;SDS011;64265;51.664;7.626;2023-07-09T04:56:50;6.30;;;5.80;;
2362;SDS011;64265;51.664;7.626;2023-07-09T04:59:18;5.50;;;5.00;;
2362;SDS011;64265;51.664;7.626;2023-07-09T05:01:46;5.70;;;5.20;;
2362;SDS011;64265;51.664;7.626;2023-07-09T05:04:13;6.30;;;5.70;;
2362;SDS011;64265;51.664;7.626;2023-07-09T05:06:39;6.07;;;5.57;;
2362;SDS011;64265;51.664;7.626;2023-07-09T05:09:05;5.57;;;5.07;;
2362;SDS011;64265;51.664;7.626;2023-07-09T05:11:33;6.90;;;5.43;;
2362;SDS011;64265;51.664;7.626;2023-07-09T05:14:01;7.27;;;5.20;;
2362;SDS011;64265;51.664;7.626;2023-07-09T05:16:29;6.50;;;5.90;;
2362;SDS011;64265;51.664;7.626;2023-07-09T05:18:57;6.80;;;6.10;;
2362;SDS011;64265;51.664;7.626;2023-07-09T05:21:23;8.40;;;5.47;;
2362;SDS011;64265;51.664;7.626;2023-07-09T05:23:50;5.23;;;4.73;;
2362;SDS011;64265;51.664;7.626;2023-07-09T05:26:17;5.77;;;5.20;;
2362;SDS011;64265;51.664;7.626;2023-07-09T05:28:43;6.13;;;5.53;;
2362;SDS011;64265;51.664;7.626;2023-07-09T05:31:10;6.17;;;5.40;;
2362;SDS011;64265;51.664;7.626;2023-07-09T05:33:37;5.43;;;4.93;;
2362;SDS011;64265;51.664;7.626;2023-07-09T05:36:05;5.30;;;4.80;;
2362;SDS011;64265;51.664;7.626;2023-07-09T05:38:33;5.67;;;5.07;;
2362;SDS011;64265;51.664;7.626;2023-07-09T05:41:00;6.57;;;5.90;;
2362;SDS011;64265;51.664;7.626;2023-07-09T05:43:28;6.00;;;5.40;;
2362;SDS011;64265;51.664;7.626;2023-07-09T05:45:56;6.40;;;5.80;;
2362;SDS011;64265;51.664;7.626;2023-07-09T05:48:22;5.03;;;4.53;;
2362;SDS011;64265;51.664;7.626;2023-07-09T05:50:52;6.13;;;5.53;;
2362;SDS011;64265;51.664;7.626;2023-07-09T05:53:22;5.93;;;5.33;;
2362;SDS011;64265;51.664;7.626;2023-07-09T05:55:52;6.13;;;5.53;;
2362;SDS011;64265;51.664;7.626;2023-07-09T05:58:19;5.10;;;4.70;;
2362;SDS011;64265;51.664;7.626;2023-07-09T06:00:48;5.40;;;4.83;;
2362;SDS011;64265;51.664;7.626;2023-07-09T06:03:18;5.47;;;4.97;;
2362;SDS011;64265;51.664;7.626;2023-07-09T06:05:46;5.17;;;4.67;;
2362;SDS011;64265;51.664;7.626;2023-07-09T06:08:14;6.10;;;5.50;;
2362;SDS011;64265;51.664;7.626;2023-07-09T06:10:50;5.30;;;4.77;;
2362;SDS011;64265;51.664;7.626;2023-07-09T06:13:19;5.40;;;4.90;;
2362;SDS011;64265;51.664;7.626;2023-07-09T06:15:46;5.80;;;5.30;;
2362;SDS011;64265;51.664;7.626;2023-07-09T06:18:13;5.83;;;5.33;;
2362;SDS011;64265;51.664;7.626;2023-07-09T06:20:39;6.27;;;5.67;;
2362;SDS011;64265;51.664;7.626;2023-07-09T06:23:06;5.40;;;4.90;;
2362;SDS011;64265;51.664;7.626;2023-07-09T06:25:33;5.67;;;5.17;;
2362;SDS011;64265;51.664;7.626;2023-07-09T06:28:01;6.33;;;4.90;;
2362;SDS011;64265;51.664;7.626;2023-07-09T06:30:28;5.53;;;5.00;;
2362;SDS011;64265;51.664;7.626;2023-07-09T06:32:55;5.30;;;4.80;;
2362;SDS011;64265;51.664;7.626;2023-07-09T06:35:21;5.73;;;5.20;;
2362;SDS011;64265;51.664;7.626;2023-07-09T06:37:48;5.60;;;5.10;;
2362;SDS011;64265;51.664;7.626;2023-07-09T06:40:15;5.10;;;4.60;;
2362;SDS011;64265;51.664;7.626;2023-07-09T06:42:42;6.03;;;5.43;;
2362;SDS011;64265;51.664;7.626;2023-07-09T06:45:10;6.07;;;5.23;;
2362;SDS011;64265;51.664;7.626;2023-07-09T06:47:36;5.37;;;4.80;;
2362;SDS011;64265;51.664;7.626;2023-07-09T06:50:03;5.83;;;5.23;;
2362;SDS011;64265;51.664;7.626;2023-07-09T06:52:31;6.70;;;6.10;;
2362;SDS011;64265;51.664;7.626;2023-07-09T06:54:57;5.50;;;4.90;;
2362;SDS011;64265;51.664;7.626;2023-07-09T06:57:24;4.27;;;3.97;;
2362;SDS011;64265;51.664;7.626;2023-07-09T06:59:51;6.07;;;5.47;;
2362;SDS011;64265;51.664;7.626;2023-07-09T07:02:19;4.77;;;4.37;;
2362;SDS011;64265;51.664;7.626;2023-07-09T07:04:45;6.13;;;5.47;;
2362;SDS011;64265;51.664;7.626;2023-07-09T07:07:12;5.40;;;4.90;;
2362;SDS011;64265;51.664;7.626;2023-07-09T07:09:39;5.37;;;4.87;;
2362;SDS011;64265;51.664;7.626;2023-07-09T07:12:06;5.60;;;4.97;;
2362;SDS011;64265;51.664;7.626;2023-07-09T07:14:33;7.13;;;5.40;;
2362;SDS011;64265;51.664;7.626;2023-07-09T07:17:00;6.70;;;6.00;;
2362;SDS011;64265;51.664;7.626;2023-07-09T07:19:29;5.20;;;4.70;;
2362;SDS011;64265;51.664;7.626;2023-07-09T07:21:55;5.80;;;5.20;;
2362;SDS011;64265;51.664;7.626;2023-07-09T07:24:22;5.37;;;4.57;;
2362;SDS011;64265;51.664;7.626;2023-07-09T07:26:48;4.63;;;4.23;;
2362;SDS011;64265;51.664;7.626;2023-07-09T07:29:15;5.60;;;4.47;;
2362;SDS011;64265;51.664;7.626;2023-07-09T07:31:42;5.20;;;4.80;;
2362;SDS011;64265;51.664;7.626;2023-07-09T07:34:08;5.30;;;4.80;;
2362;SDS011;64265;51.664;7.626;2023-07-09T07:36:37;4.60;;;4.30;;
2362;SDS011;64265;51.664;7.626;2023-07-09T07:39:04;4.70;;;4.30;;
2362;SDS011;64265;51.664;7.626;2023-07-09T07:41:31;6.10;;;4.43;;
2362;SDS011;64265;51.664;7.626;2023-07-09T07:43:58;5.23;;;4.73;;
2362;SDS011;64265;51.664;7.626;2023-07-09T07:46:24;4.53;;;4.20;;
2362;SDS011;64265;51.664;7.626;2023-07-09T07:48:51;5.70;;;4.57;;
2362;SDS011;64265;51.664;7.626;2023-07-09T07:51:18;6.13;;;5.20;;
2362;SDS011;64265;51.664;7.626;2023-07-09T07:53:46;4.67;;;4.23;;
2362;SDS011;64265;51.664;7.626;2023-07-09T07:56:14;4.67;;;4.27;;
2362;SDS011;64265;51.664;7.626;2023-07-09T07:58:40;5.60;;;4.50;;
2362;SDS011;64265;51.664;7.626;2023-07-09T08:01:07;4.60;;;4.20;;
2362;SDS011;64265;51.664;7.626;2023-07-09T08:03:34;5.30;;;4.47;;
2362;SDS011;64265;51.664;7.626;2023-07-09T08:06:00;6.13;;;4.43;;
2362;SDS011;64265;51.664;7.626;2023-07-09T08:08:27;4.60;;;4.20;;
2362;SDS011;64265;51.664;7.626;2023-07-09T08:11:01;4.70;;;3.90;;
2362;SDS011;64265;51.664;7.626;2023-07-09T08:13:29;5.27;;;4.77;;
2362;SDS011;64265;51.664;7.626;2023-07-09T08:15:57;4.43;;;4.03;;
2362;SDS011;64265;51.664;7.626;2023-07-09T08:18:24;5.03;;;4.30;;
2362;SDS011;64265;51.664;7.626;2023-07-09T08:20:50;6.07;;;5.40;;
2362;SDS011;64265;51.664;7.626;2023-07-09T08:23:17;4.43;;;4.03;;
2362;SDS011;64265;51.664;7.626;2023-07-09T08:25:44;5.00;;;4.60;;
2362;SDS011;64265;51.664;7.626;2023-07-09T08:28:19;4.90;;;4.50;;
2362;SDS011;64265;51.664;7.626;2023-07-09T08:30:46;6.00;;;4.77;;
2362;SDS011;64265;51.664;7.626;2023-07-09T08:33:12;4.30;;;3.90;;
2362;SDS011;64265;51.664;7.626;2023-07-09T08:35:41;6.23;;;4.60;;
2362;SDS011;64265;51.664;7.626;2023-07-09T08:38:08;4.43;;;4.03;;
2362;SDS011;64265;51.664;7.626;2023-07-09T08:40:38;5.50;;;4.70;;
2362;SDS011;64265;51.664;7.626;2023-07-09T08:43:10;4.20;;;3.80;;
2362;SDS011;64265;51.664;7.626;2023-07-09T08:45:45;4.50;;;4.10;;
2362;SDS011;64265;51.664;7.626;2023-07-09T08:48:18;5.17;;;4.60;;
2362;SDS011;64265;51.664;7.626;2023-07-09T08:50:53;5.77;;;5.00;;
2362;SDS011;64265;51.664;7.626;2023-07-09T08:53:25;7.13;;;5.17;;
2362;SDS011;64265;51.664;7.626;2023-07-09T08:55:57;4.60;;;4.20;;
2362;SDS011;64265;51.664;7.626;2023-07-09T08:58:25;4.40;;;4.00;;
2362;SDS011;64265;51.664;7.626;2023-07-09T09:00:56;4.90;;;4.10;;
2362;SDS011;64265;51.664;7.626;2023-07-09T09:03:29;6.00;;;5.10;;
2362;SDS011;64265;51.664;7.626;2023-07-09T09:06:00;5.43;;;4.50;;
2362;SDS011;64265;51.664;7.626;2023-07-09T09:08:33;4.73;;;4.33;;
2362;SDS011;64265;51.664;7.626;2023-07-09T09:11:07;5.60;;;4.90;;
2362;SDS011;64265;51.664;7.626;2023-07-09T09:13:40;4.70;;;4.30;;
2362;SDS011;64265;51.664;7.626;2023-07-09T09:16:11;5.93;;;5.20;;
2362;SDS011;64265;51.664;7.626;2023-07-09T09:18:47;5.10;;;4.63;;
2362;SDS011;64265;51.664;7.626;2023-07-09T09:21:17;5.87;;;4.80;;
2362;SDS011;64265;51.664;7.626;2023-07-09T09:23:49;5.90;;;5.07;;
2362;SDS011;64265;51.664;7.626;2023-07-09T09:26:30;5.73;;;5.10;;
2362;SDS011;64265;51.664;7.626;2023-07-09T09:29:00;7.10;;;5.00;;
2362;SDS011;64265;51.664;7.626;2023-07-09T09:31:28;7.00;;;4.90;;
2362;SDS011;64265;51.664;7.626;2023-07-09T09:33:56;7.00;;;4.20;;
2362;SDS011;64265;51.664;7.626;2023-07-09T09:36:23;8.60;;;5.47;;
2362;SDS011;64265;51.664;7.626;2023-07-09T09:38:51;9.77;;;5.57;;
2362;SDS011;64265;51.664;7.626;2023-07-09T09:41:19;5.20;;;4.70;;
2362;SDS011;64265;51.664;7.626;2023-07-09T09:43:48;5.57;;;5.00;;
2362;SDS011;64265;51.664;7.626;2023-07-09T09:46:18;5.20;;;4.70;;
2362;SDS011;64265;51.664;7.626;2023-07-09T09:48:48;6.67;;;5.10;;
2362;SDS011;64265;51.664;7.626;2023-07-09T09:51:19;5.00;;;4.60;;
2362;SDS011;64265;51.664;7.626;2023-07-09T09:53:47;6.87;;;5.33;;
2362;SDS011;64265;51.664;7.626;2023-07-09T09:56:17;6.00;;;4.77;;
2362;SDS011;64265;51.664;7.626;2023-07-09T09:58:45;5.07;;;4.50;;
2362;SDS011;64265;51.664;7.626;2023-07-09T10:01:13;7.13;;;4.90;;
2362;SDS011;64265;51.664;7.626;2023-07-09T10:03:42;5.40;;;4.70;;
2362;SDS011;64265;51.664;7.626;2023-07-09T10:06:15;5.43;;;4.97;;
2362;SDS011;64265;51.664;7.626;2023-07-09T10:08:52;8.70;;;4.80;;
2362;SDS011;64265;51.664;7.626;2023-07-09T10:11:39;5.20;;;4.70;;
2362;SDS011;64265;51.664;7.626;2023-07-09T10:14:16;5.33;;;4.50;;
2362;SDS011;64265;51.664;7.626;2023-07-09T10:16:58;5.53;;;5.00;;
2362;SDS011;64265;51.664;7.626;2023-07-09T10:19:31;5.47;;;4.97;;
2362;SDS011;64265;51.664;7.626;2023-07-09T10:22:09;6.80;;;4.93;;
2362;SDS011;64265;51.664;7.626;2023-07-09T10:24:44;6.17;;;5.20;;
2362;SDS011;64265;51.664;7.626;2023-07-09T10:27:22;6.27;;;5.67;;
2362;SDS011;64265;51.664;7.626;2023-07-09T10:30:01;8.20;;;5.20;;
2362;SDS011;64265;51.664;7.626;2023-07-09T10:32:43;4.73;;;4.27;;
2362;SDS011;64265;51.664;7.626;2023-07-09T10:35:21;6.70;;;5.53;;
2362;SDS011;64265;51.664;7.626;2023-07-09T10:38:06;5.23;;;4.73;;
2362;SDS011;64265;51.664;7.626;2023-07-09T10:40:41;5.27;;;4.80;;
2362;SDS011;64265;51.664;7.626;2023-07-09T10:43:13;5.40;;;4.90;;
2362;SDS011;64265;51.664;7.626;2023-07-09T10:45:46;5.53;;;4.73;;
2362;SDS011;64265;51.664;7.626;2023-07-09T10:48:15;7.40;;;5.50;;
2362;SDS011;64265;51.664;7.626;2023-07-09T10:50:45;4.90;;;4.50;;
2362;SDS011;64265;51.664;7.626;2023-07-09T10:53:16;5.23;;;4.67;;
2362;SDS011;64265;51.664;7.626;2023-07-09T10:55:55;4.83;;;4.40;;
2362;SDS011;64265;51.664;7.626;2023-07-09T10:58:28;5.27;;;4.57;;
2362;SDS011;64265;51.664;7.626;2023-07-09T11:01:00;5.07;;;4.57;;
2362;SDS011;64265;51.664;7.626;2023-07-09T11:03:32;5.47;;;4.97;;
2362;SDS011;64265;51.664;7.626;2023-07-09T11:06:03;5.47;;;4.93;;
2362;SDS011;64265;51.664;7.626;2023-07-09T11:08:34;6.33;;;5.33;;
2362;SDS011;64265;51.664;7.626;2023-07-09T11:11:04;5.33;;;4.83;;
2362;SDS011;64265;51.664;7.626;2023-07-09T11:13:35;6.97;;;4.80;;
2362;SDS011;64265;51.664;7.626;2023-07-09T11:16:07;6.23;;;4.93;;
2362;SDS011;64265;51.664;7.626;2023-07-09T11:18:38;4.47;;;4.07;;
2362;SDS011;64265;51.664;7.626;2023-07-09T11:21:05;5.23;;;4.83;;
2362;SDS011;64265;51.664;7.626;2023-07-09T11:23:39;4.77;;;4.30;;
2362;SDS011;64265;51.664;7.626;2023-07-09T11:26:11;4.90;;;4.30;;
2362;SDS011;64265;51.664;7.626;2023-07-09T11:28:39;6.33;;;4.77;;
2362;SDS011;64265;51.664;7.626;2023-07-09T11:31:16;4.87;;;4.47;;
2362;SDS011;64265;51.664;7.626;2023-07-09T11:33:46;6.30;;;4.27;;
2362;SDS011;64265;51.664;7.626;2023-07-09T11:36:23;6.17;;;4.40;;
2362;SDS011;64265;51.664;7.626;2023-07-09T11:38:53;4.30;;;3.90;;
2362;SDS011;64265;51.664;7.626;2023-07-09T11:41:25;4.07;;;3.63;;
2362;SDS011;64265;51.664;7.626;2023-07-09T11:44:01;4.63;;;4.13;;
2362;SDS011;64265;51.664;7.626;2023-07-09T11:46:29;5.33;;;4.17;;
2362;SDS011;64265;51.664;7.626;2023-07-09T11:48:58;5.07;;;4.40;;
2362;SDS011;64265;51.664;7.626;2023-07-09T11:51:29;5.63;;;4.97;;
2362;SDS011;64265;51.664;7.626;2023-07-09T11:54:04;3.80;;;3.50;;
2362;SDS011;64265;51.664;7.626;2023-07-09T11:56:30;6.27;;;4.87;;
2362;SDS011;64265;51.664;7.626;2023-07-09T11:58:58;4.70;;;4.20;;
2362;SDS011;64265;51.664;7.626;2023-07-09T12:01:26;4.57;;;4.17;;
2362;SDS011;64265;51.664;7.626;2023-07-09T12:03:56;5.37;;;4.83;;
2362;SDS011;64265;51.664;7.626;2023-07-09T12:06:24;4.13;;;3.60;;
2362;SDS011;64265;51.664;7.626;2023-07-09T12:08:53;5.00;;;4.50;;
2362;SDS011;64265;51.664;7.626;2023-07-09T12:11:23;4.80;;;4.40;;
2362;SDS011;64265;51.664;7.626;2023-07-09T12:13:52;5.13;;;4.63;;
2362;SDS011;64265;51.664;7.626;2023-07-09T12:16:22;4.97;;;4.50;;
2362;SDS011;64265;51.664;7.626;2023-07-09T12:18:51;4.17;;;3.83;;
2362;SDS011;64265;51.664;7.626;2023-07-09T12:21:18;5.57;;;5.13;;
2362;SDS011;64265;51.664;7.626;2023-07-09T12:23:45;4.37;;;3.97;;
2362;SDS011;64265;51.664;7.626;2023-07-09T12:26:13;5.07;;;4.57;;
2362;SDS011;64265;51.664;7.626;2023-07-09T12:28:48;4.47;;;4.07;;
2362;SDS011;64265;51.664;7.626;2023-07-09T12:31:16;5.30;;;4.80;;
2362;SDS011;64265;51.664;7.626;2023-07-09T12:33:46;4.90;;;4.40;;
2362;SDS011;64265;51.664;7.626;2023-07-09T12:36:15;4.63;;;4.23;;
2362;SDS011;64265;51.664;7.626;2023-07-09T12:38:43;4.90;;;4.23;;
2362;SDS011;64265;51.664;7.626;2023-07-09T12:41:21;5.33;;;4.37;;
2362;SDS011;64265;51.664;7.626;2023-07-09T12:43:54;4.30;;;3.70;;
2362;SDS011;64265;51.664;7.626;2023-07-09T12:46:21;5.17;;;4.53;;
2362;SDS011;64265;51.664;7.626;2023-07-09T12:48:49;4.63;;;4.23;;
2362;SDS011;64265;51.664;7.626;2023-07-09T12:51:18;4.40;;;3.90;;
2362;SDS011;64265;51.664;7.626;2023-07-09T12:53:49;4.57;;;4.07;;
2362;SDS011;64265;51.664;7.626;2023-07-09T12:56:27;4.80;;;4.40;;
2362;SDS011;64265;51.664;7.626;2023-07-09T12:58:57;5.20;;;4.30;;
2362;SDS011;64265;51.664;7.626;2023-07-09T13:01:24;5.07;;;3.50;;
2362;SDS011;64265;51.664;7.626;2023-07-09T13:03:53;4.40;;;4.00;;
2362;SDS011;64265;51.664;7.626;2023-07-09T13:06:24;5.20;;;4.80;;
2362;SDS011;64265;51.664;7.626;2023-07-09T13:08:56;5.10;;;4.60;;
2362;SDS011;64265;51.664;7.626;2023-07-09T13:11:24;3.60;;;3.30;;
2362;SDS011;64265;51.664;7.626;2023-07-09T13:13:54;4.53;;;4.13;;
2362;SDS011;64265;51.664;7.626;2023-07-09T13:16:23;5.03;;;4.53;;
2362;SDS011;64265;51.664;7.626;2023-07-09T13:18:50;5.27;;;4.67;;
2362;SDS011;64265;51.664;7.626;2023-07-09T13:21:17;5.17;;;4.37;;
2362;SDS011;64265;51.664;7.626;2023-07-09T13:23:45;4.60;;;3.70;;
2362;SDS011;64265;51.664;7.626;2023-07-09T13:26:12;3.93;;;3.53;;
2362;SDS011;64265;51.664;7.626;2023-07-09T13:28:39;4.10;;;3.70;;
2362;SDS011;64265;51.664;7.626;2023-07-09T13:31:08;3.53;;;3.23;;
2362;SDS011;64265;51.664;7.626;2023-07-09T13:33:41;4.47;;;4.07;;
2362;SDS011;64265;51.664;7.626;2023-07-09T13:36:08;4.57;;;4.03;;
2362;SDS011;64265;51.664;7.626;2023-07-09T13:38:36;4.30;;;3.90;;
2362;SDS011;64265;51.664;7.626;2023-07-09T13:41:09;4.50;;;4.10;;
2362;SDS011;64265;51.664;7.626;2023-07-09T13:43:40;5.23;;;4.17;;
2362;SDS011;64265;51.664;7.626;2023-07-09T13:46:09;4.20;;;3.80;;
2362;SDS011;64265;51.664;7.626;2023-07-09T13:48:36;4.70;;;4.17;;
2362;SDS011;64265;51.664;7.626;2023-07-09T13:51:10;4.10;;;3.80;;
2362;SDS011;64265;51.664;7.626;2023-07-09T13:53:40;3.90;;;3.57;;
2362;SDS011;64265;51.664;7.626;2023-07-09T13:56:07;4.27;;;3.90;;
2362;SDS011;64265;51.664;7.626;2023-07-09T13:58:33;3.77;;;3.40;;
2362;SDS011;64265;51.664;7.626;2023-07-09T14:01:01;4.60;;;3.90;;
2362;SDS011;64265;51.664;7.626;2023-07-09T14:03:35;4.90;;;4.37;;
2362;SDS011;64265;51.664;7.626;2023-07-09T14:06:02;3.93;;;3.57;;
2362;SDS011;64265;51.664;7.626;2023-07-09T14:08:31;4.37;;;3.97;;
2362;SDS011;64265;51.664;7.626;2023-07-09T14:10:58;4.10;;;3.53;;
2362;SDS011;64265;51.664;7.626;2023-07-09T14:13:24;4.33;;;3.93;;
2362;SDS011;64265;51.664;7.626;2023-07-09T14:15:51;4.60;;;4.20;;
2362;SDS011;64265;51.664;7.626;2023-07-09T14:18:19;4.73;;;4.33;;
2362;SDS011;64265;51.664;7.626;2023-07-09T14:20:47;3.83;;;3.43;;
2362;SDS011;64265;51.664;7.626;2023-07-09T14:23:16;8.53;;;4.00;;
2362;SDS011;64265;51.664;7.626;2023-07-09T14:25:45;4.07;;;3.67;;
2362;SDS011;64265;51.664;7.626;2023-07-09T14:28:13;4.80;;;4.10;;
2362;SDS011;64265;51.664;7.626;2023-07-09T14:30:42;4.97;;;4.57;;
2362;SDS011;64265;51.664;7.626;2023-07-09T14:33:11;3.70;;;3.40;;
2362;SDS011;64265;51.664;7.626;2023-07-09T14:35:39;4.00;;;3.60;;
2362;SDS011;64265;51.664;7.626;2023-07-09T14:38:06;4.37;;;3.97;;
2362;SDS011;64265;51.664;7.626;2023-07-09T14:40:41;6.00;;;3.50;;
2362;SDS011;64265;51.664;7.626;2023-07-09T14:43:10;4.40;;;4.00;;
2362;SDS011;64265;51.664;7.626;2023-07-09T14:45:37;4.00;;;3.70;;
2362;SDS011;64265;51.664;7.626;2023-07-09T14:48:08;3.97;;;3.57;;
2362;SDS011;64265;51.664;7.626;2023-07-09T14:50:36;4.23;;;3.77;;
2362;SDS011;64265;51.664;7.626;2023-07-09T14:53:03;3.80;;;3.50;;
2362;SDS011;64265;51.664;7.626;2023-07-09T14:55:31;3.90;;;3.60;;
2362;SDS011;64265;51.664;7.626;2023-07-09T14:57:58;3.93;;;3.63;;
2362;SDS011;64265;51.664;7.626;2023-07-09T15:00:27;3.27;;;2.97;;
2362;SDS011;64265;51.664;7.626;2023-07-09T15:02:54;4.20;;;3.40;;
2362;SDS011;64265;51.664;7.626;2023-07-09T15:05:21;4.30;;;3.90;;
2362;SDS011;64265;51.664;7.626;2023-07-09T15:07:56;3.83;;;3.40;;
2362;SDS011;64265;51.664;7.626;2023-07-09T15:10:41;4.30;;;3.90;;
2362;SDS011;64265;51.664;7.626;2023-07-09T15:55:43;7.60;;;4.43;;
2362;SDS011;64265;51.664;7.626;2023-07-09T16:05:53;6.27;;;3.87;;